Manila Express — VRCX7 — position and weather

sailwx.info

Track history (hours):
 
Tides and Currents Weather Stations Pressure Air Temp Water Temp Dewpoint Dewpoint Depression Visibility Wind Speed Wind Dir Waves Ship Positions

Manila Express

Last reported at 2015-Aug-29 14:05 UTC. Time now 2015-Aug-29 16:55 UTC.
Position S 37°10' E 150°12'.

Length 260 m; draft 10.2 m.

Type: Ship (hazmat cat A). MMSI: 477830800.

Date/timePositionNaut miles runAvg speedWind from/ knotsBaromVisibWave heightAir tempDewpointWater temp
2015-Aug-29 14:05S 37°10' E 150°12'917.0
2015-Aug-29 13:33S 37°19' E 150°09'1717.1
2015-Aug-29 12:33S 37°36' E 150°02'1615.8
2015-Aug-29 11:33S 37°48' E 149°50'1716.7
2015-Aug-29 10:32S 37°59' E 149°34'2016.4
2015-Aug-29 09:19S 38°12' E 149°14'1215.6
2015-Aug-29 08:34S 38°19' E 149°02'1616.5
2015-Aug-29 07:34S 38°29' E 148°46'7617.0
2015-Aug-29 03:05S 39°02' E 147°18'917.3
2015-Aug-29 02:33S 39°05' E 147°06'1717.0
2015-Aug-29 01:34S 39°12' E 146°47'1616.2
2015-Aug-29 00:34S 39°17' E 146°27'1616.0
2015-Aug-28 23:33S 39°17' E 146°06'1515.2
2015-Aug-28 22:34S 39°10' E 145°49'1515.4
2015-Aug-28 21:34S 39°01' E 145°32'118 2.6
2015-Aug-27 00:26S 38°56' E 143°01'1414.2
2015-Aug-26 23:27S 38°54' E 142°44'1415.8
2015-Aug-26 22:33S 38°52' E 142°26'1514.7
2015-Aug-26 21:33S 38°49' E 142°07'1515.3
2015-Aug-26 20:33S 38°46' E 141°48'22415.4
2015-Aug-26 06:00S 38°06' E 137°06'17814.8 170 / 101029.5 2.2 14.010.2
2015-Aug-25 18:00S 37°36' E 133°24'   230 / 251031.0 5.4 2.010.0 5.6
2015-Aug-20 06:00S 27°12' E 107°00'   190 / 141024.3 5.4 2.023.014.6
Track history (hours):
 
Tides and Currents Weather Stations Pressure Air Temp Water Temp Dewpoint Dewpoint Depression Visibility Wind Speed Wind Dir Waves Ship Positions

Manila Express

Last reported at 2015-Aug-29 14:05 UTC. Time now 2015-Aug-29 16:55 UTC.
Position S 37°10' E 150°12'.

Length 260 m; draft 10.2 m.

Type: Ship (hazmat cat A). MMSI: 477830800.

Date/timePositionNaut miles runAvg speedWind from/ knotsBaromVisibWave heightAir tempDewpointWater temp
2015-Aug-29 14:05S 37°10' E 150°12'917.0
2015-Aug-29 13:33S 37°19' E 150°09'1717.1
2015-Aug-29 12:33S 37°36' E 150°02'1615.8
2015-Aug-29 11:33S 37°48' E 149°50'1716.7
2015-Aug-29 10:32S 37°59' E 149°34'2016.4
2015-Aug-29 09:19S 38°12' E 149°14'1215.6
2015-Aug-29 08:34S 38°19' E 149°02'1616.5
2015-Aug-29 07:34S 38°29' E 148°46'7617.0
2015-Aug-29 03:05S 39°02' E 147°18'917.3
2015-Aug-29 02:33S 39°05' E 147°06'1717.0
2015-Aug-29 01:34S 39°12' E 146°47'1616.2
2015-Aug-29 00:34S 39°17' E 146°27'1616.0
2015-Aug-28 23:33S 39°17' E 146°06'1515.2
2015-Aug-28 22:34S 39°10' E 145°49'1515.4
2015-Aug-28 21:34S 39°01' E 145°32'118 2.6
2015-Aug-27 00:26S 38°56' E 143°01'1414.2
2015-Aug-26 23:27S 38°54' E 142°44'1415.8
2015-Aug-26 22:33S 38°52' E 142°26'1514.7
2015-Aug-26 21:33S 38°49' E 142°07'1515.3
2015-Aug-26 20:33S 38°46' E 141°48'22415.4
2015-Aug-26 06:00S 38°06' E 137°06'17814.8 170 / 101029.5 2.2 14.010.2
2015-Aug-25 18:00S 37°36' E 133°24'   230 / 251031.0 5.4 2.010.0 5.6
2015-Aug-20 06:00S 27°12' E 107°00'   190 / 141024.3 5.4 2.023.014.6

Dump ship's entire track history